sensor_id;sensor_type;location;lat;lon;timestamp;P1;durP1;ratioP1;P2;durP2;ratioP2
24147;SDS011;12309;51.450;-2.624;2022-07-06T00:00:42;5.82;;;1.50;;
24147;SDS011;12309;51.450;-2.624;2022-07-06T00:03:08;1.58;;;1.40;;
24147;SDS011;12309;51.450;-2.624;2022-07-06T00:05:34;2.50;;;1.55;;
24147;SDS011;12309;51.450;-2.624;2022-07-06T00:08:00;5.10;;;1.40;;
24147;SDS011;12309;51.450;-2.624;2022-07-06T00:10:25;4.07;;;1.20;;
24147;SDS011;12309;51.450;-2.624;2022-07-06T00:12:51;3.85;;;1.30;;
24147;SDS011;12309;51.450;-2.624;2022-07-06T00:15:17;1.77;;;1.20;;
24147;SDS011;12309;51.450;-2.624;2022-07-06T00:17:43;3.47;;;1.23;;
24147;SDS011;12309;51.450;-2.624;2022-07-06T00:20:09;3.35;;;1.55;;
24147;SDS011;12309;51.450;-2.624;2022-07-06T00:22:35;3.20;;;1.40;;
24147;SDS011;12309;51.450;-2.624;2022-07-06T00:25:00;3.50;;;1.38;;
24147;SDS011;12309;51.450;-2.624;2022-07-06T00:27:26;2.75;;;1.45;;
24147;SDS011;12309;51.450;-2.624;2022-07-06T00:29:52;3.20;;;1.42;;
24147;SDS011;12309;51.450;-2.624;2022-07-06T00:32:18;1.60;;;1.30;;
24147;SDS011;12309;51.450;-2.624;2022-07-06T00:34:43;1.85;;;1.17;;
24147;SDS011;12309;51.450;-2.624;2022-07-06T00:37:09;4.47;;;1.52;;
24147;SDS011;12309;51.450;-2.624;2022-07-06T00:39:35;2.75;;;1.50;;
24147;SDS011;12309;51.450;-2.624;2022-07-06T00:42:01;3.00;;;1.58;;
24147;SDS011;12309;51.450;-2.624;2022-07-06T00:44:27;3.83;;;1.70;;
24147;SDS011;12309;51.450;-2.624;2022-07-06T00:46:54;5.65;;;1.40;;
24147;SDS011;12309;51.450;-2.624;2022-07-06T00:49:19;2.60;;;1.48;;
24147;SDS011;12309;51.450;-2.624;2022-07-06T00:52:03;1.50;;;1.40;;
24147;SDS011;12309;51.450;-2.624;2022-07-06T00:54:30;3.67;;;1.45;;
24147;SDS011;12309;51.450;-2.624;2022-07-06T00:56:57;2.42;;;1.30;;
24147;SDS011;12309;51.450;-2.624;2022-07-06T00:59:24;2.95;;;1.50;;
24147;SDS011;12309;51.450;-2.624;2022-07-06T01:01:50;4.80;;;1.50;;
24147;SDS011;12309;51.450;-2.624;2022-07-06T01:04:16;1.60;;;1.45;;
24147;SDS011;12309;51.450;-2.624;2022-07-06T01:06:41;4.13;;;1.10;;
24147;SDS011;12309;51.450;-2.624;2022-07-06T01:09:10;2.78;;;1.40;;
24147;SDS011;12309;51.450;-2.624;2022-07-06T01:11:36;3.10;;;1.50;;
24147;SDS011;12309;51.450;-2.624;2022-07-06T01:14:02;1.58;;;1.48;;
24147;SDS011;12309;51.450;-2.624;2022-07-06T01:16:28;2.03;;;1.35;;
24147;SDS011;12309;51.450;-2.624;2022-07-06T01:18:55;4.88;;;1.58;;
24147;SDS011;12309;51.450;-2.624;2022-07-06T01:21:21;3.55;;;1.40;;
24147;SDS011;12309;51.450;-2.624;2022-07-06T01:23:47;5.03;;;1.67;;
24147;SDS011;12309;51.450;-2.624;2022-07-06T01:26:14;6.43;;;1.50;;
24147;SDS011;12309;51.450;-2.624;2022-07-06T01:28:44;4.40;;;1.70;;
24147;SDS011;12309;51.450;-2.624;2022-07-06T01:31:17;4.32;;;1.75;;
24147;SDS011;12309;51.450;-2.624;2022-07-06T01:33:45;2.40;;;1.35;;
24147;SDS011;12309;51.450;-2.624;2022-07-06T01:36:11;3.20;;;1.40;;
24147;SDS011;12309;51.450;-2.624;2022-07-06T01:38:50;1.83;;;1.48;;
24147;SDS011;12309;51.450;-2.624;2022-07-06T01:41:18;1.90;;;1.58;;
24147;SDS011;12309;51.450;-2.624;2022-07-06T01:43:44;1.65;;;1.42;;
24147;SDS011;12309;51.450;-2.624;2022-07-06T01:46:10;1.67;;;1.38;;
24147;SDS011;12309;51.450;-2.624;2022-07-06T01:48:36;1.85;;;1.40;;
24147;SDS011;12309;51.450;-2.624;2022-07-06T01:51:03;2.95;;;1.60;;
24147;SDS011;12309;51.450;-2.624;2022-07-06T01:53:29;2.70;;;1.45;;
24147;SDS011;12309;51.450;-2.624;2022-07-06T01:55:55;1.30;;;1.20;;
24147;SDS011;12309;51.450;-2.624;2022-07-06T01:58:21;2.28;;;1.42;;
24147;SDS011;12309;51.450;-2.624;2022-07-06T02:00:47;3.33;;;1.67;;
24147;SDS011;12309;51.450;-2.624;2022-07-06T02:03:12;1.70;;;1.60;;
24147;SDS011;12309;51.450;-2.624;2022-07-06T02:05:38;2.47;;;1.75;;
24147;SDS011;12309;51.450;-2.624;2022-07-06T02:08:04;2.30;;;1.77;;
24147;SDS011;12309;51.450;-2.624;2022-07-06T02:13:34;4.93;;;1.73;;
24147;SDS011;12309;51.450;-2.624;2022-07-06T02:16:01;2.00;;;1.80;;
24147;SDS011;12309;51.450;-2.624;2022-07-06T02:18:27;2.63;;;1.50;;
24147;SDS011;12309;51.450;-2.624;2022-07-06T02:20:53;4.32;;;1.70;;
24147;SDS011;12309;51.450;-2.624;2022-07-06T02:23:19;4.28;;;1.50;;
24147;SDS011;12309;51.450;-2.624;2022-07-06T02:25:44;1.75;;;1.40;;
24147;SDS011;12309;51.450;-2.624;2022-07-06T02:28:10;3.28;;;1.42;;
24147;SDS011;12309;51.450;-2.624;2022-07-06T02:30:36;1.95;;;1.52;;
24147;SDS011;12309;51.450;-2.624;2022-07-06T02:33:02;1.95;;;1.35;;
24147;SDS011;12309;51.450;-2.624;2022-07-06T02:35:28;3.05;;;1.38;;
24147;SDS011;12309;51.450;-2.624;2022-07-06T02:37:53;2.60;;;1.60;;
24147;SDS011;12309;51.450;-2.624;2022-07-06T02:40:19;1.60;;;1.30;;
24147;SDS011;12309;51.450;-2.624;2022-07-06T02:42:45;1.50;;;1.40;;
24147;SDS011;12309;51.450;-2.624;2022-07-06T02:45:11;2.50;;;1.58;;
24147;SDS011;12309;51.450;-2.624;2022-07-06T02:47:36;2.38;;;1.33;;
24147;SDS011;12309;51.450;-2.624;2022-07-06T02:50:03;3.20;;;1.50;;
24147;SDS011;12309;51.450;-2.624;2022-07-06T02:52:30;5.28;;;1.35;;
24147;SDS011;12309;51.450;-2.624;2022-07-06T02:54:55;2.55;;;1.40;;
24147;SDS011;12309;51.450;-2.624;2022-07-06T02:57:21;1.58;;;1.48;;
24147;SDS011;12309;51.450;-2.624;2022-07-06T02:59:47;2.38;;;1.50;;
24147;SDS011;12309;51.450;-2.624;2022-07-06T03:02:15;2.13;;;1.27;;
24147;SDS011;12309;51.450;-2.624;2022-07-06T03:04:42;3.20;;;1.42;;
24147;SDS011;12309;51.450;-2.624;2022-07-06T03:07:08;1.70;;;1.60;;
24147;SDS011;12309;51.450;-2.624;2022-07-06T03:09:33;5.53;;;1.38;;
24147;SDS011;12309;51.450;-2.624;2022-07-06T03:11:59;4.07;;;1.70;;
24147;SDS011;12309;51.450;-2.624;2022-07-06T03:14:25;3.22;;;1.80;;
24147;SDS011;12309;51.450;-2.624;2022-07-06T03:16:52;3.90;;;1.70;;
24147;SDS011;12309;51.450;-2.624;2022-07-06T03:19:18;2.25;;;1.70;;
24147;SDS011;12309;51.450;-2.624;2022-07-06T03:21:44;3.03;;;1.58;;
24147;SDS011;12309;51.450;-2.624;2022-07-06T03:24:09;2.90;;;1.75;;
24147;SDS011;12309;51.450;-2.624;2022-07-06T03:26:35;3.03;;;1.90;;
24147;SDS011;12309;51.450;-2.624;2022-07-06T03:29:01;3.22;;;1.52;;
24147;SDS011;12309;51.450;-2.624;2022-07-06T03:31:27;1.98;;;1.70;;
24147;SDS011;12309;51.450;-2.624;2022-07-06T03:33:53;3.08;;;1.92;;
24147;SDS011;12309;51.450;-2.624;2022-07-06T03:36:18;3.65;;;1.60;;
24147;SDS011;12309;51.450;-2.624;2022-07-06T03:38:44;2.88;;;1.50;;
24147;SDS011;12309;51.450;-2.624;2022-07-06T03:41:10;3.17;;;1.85;;
24147;SDS011;12309;51.450;-2.624;2022-07-06T03:43:36;2.78;;;1.70;;
24147;SDS011;12309;51.450;-2.624;2022-07-06T03:46:02;2.30;;;1.60;;
24147;SDS011;12309;51.450;-2.624;2022-07-06T03:48:28;1.90;;;1.52;;
24147;SDS011;12309;51.450;-2.624;2022-07-06T03:50:54;1.95;;;1.50;;
24147;SDS011;12309;51.450;-2.624;2022-07-06T03:53:20;2.00;;;1.50;;
24147;SDS011;12309;51.450;-2.624;2022-07-06T03:55:46;4.57;;;1.92;;
24147;SDS011;12309;51.450;-2.624;2022-07-06T03:58:32;5.60;;;1.75;;
24147;SDS011;12309;51.450;-2.624;2022-07-06T04:00:58;5.47;;;2.05;;
24147;SDS011;12309;51.450;-2.624;2022-07-06T04:03:24;3.65;;;1.90;;
24147;SDS011;12309;51.450;-2.624;2022-07-06T04:05:49;2.00;;;1.73;;
24147;SDS011;12309;51.450;-2.624;2022-07-06T04:08:15;2.72;;;2.08;;
24147;SDS011;12309;51.450;-2.624;2022-07-06T04:10:41;3.72;;;2.08;;
24147;SDS011;12309;51.450;-2.624;2022-07-06T04:13:07;4.78;;;1.80;;
24147;SDS011;12309;51.450;-2.624;2022-07-06T04:15:32;2.85;;;2.15;;
24147;SDS011;12309;51.450;-2.624;2022-07-06T04:17:58;2.20;;;1.75;;
24147;SDS011;12309;51.450;-2.624;2022-07-06T04:20:24;4.13;;;2.00;;
24147;SDS011;12309;51.450;-2.624;2022-07-06T04:22:51;3.63;;;1.95;;
24147;SDS011;12309;51.450;-2.624;2022-07-06T04:25:17;5.00;;;2.33;;
24147;SDS011;12309;51.450;-2.624;2022-07-06T04:27:43;3.30;;;1.92;;
24147;SDS011;12309;51.450;-2.624;2022-07-06T04:30:09;2.83;;;2.30;;
24147;SDS011;12309;51.450;-2.624;2022-07-06T04:32:36;7.03;;;2.03;;
24147;SDS011;12309;51.450;-2.624;2022-07-06T04:35:02;3.92;;;1.83;;
24147;SDS011;12309;51.450;-2.624;2022-07-06T04:37:29;3.65;;;2.38;;
24147;SDS011;12309;51.450;-2.624;2022-07-06T04:39:55;4.85;;;2.20;;
24147;SDS011;12309;51.450;-2.624;2022-07-06T04:42:20;4.45;;;2.35;;
24147;SDS011;12309;51.450;-2.624;2022-07-06T04:44:46;3.45;;;2.28;;
24147;SDS011;12309;51.450;-2.624;2022-07-06T04:47:12;3.20;;;2.05;;
24147;SDS011;12309;51.450;-2.624;2022-07-06T04:49:38;5.82;;;2.47;;
24147;SDS011;12309;51.450;-2.624;2022-07-06T04:52:04;3.97;;;2.47;;
24147;SDS011;12309;51.450;-2.624;2022-07-06T04:54:30;6.25;;;2.60;;
24147;SDS011;12309;51.450;-2.624;2022-07-06T04:56:56;7.57;;;2.15;;
24147;SDS011;12309;51.450;-2.624;2022-07-06T04:59:22;6.88;;;2.42;;
24147;SDS011;12309;51.450;-2.624;2022-07-06T05:01:48;5.43;;;2.38;;
24147;SDS011;12309;51.450;-2.624;2022-07-06T05:04:14;2.90;;;2.30;;
24147;SDS011;12309;51.450;-2.624;2022-07-06T05:06:40;5.57;;;2.45;;
24147;SDS011;12309;51.450;-2.624;2022-07-06T05:09:06;6.65;;;2.65;;
24147;SDS011;12309;51.450;-2.624;2022-07-06T05:11:31;6.03;;;2.58;;
24147;SDS011;12309;51.450;-2.624;2022-07-06T05:13:57;8.50;;;2.75;;
24147;SDS011;12309;51.450;-2.624;2022-07-06T05:16:23;6.85;;;2.50;;
24147;SDS011;12309;51.450;-2.624;2022-07-06T05:18:49;4.43;;;2.47;;
24147;SDS011;12309;51.450;-2.624;2022-07-06T05:21:15;7.97;;;3.00;;
24147;SDS011;12309;51.450;-2.624;2022-07-06T05:23:40;7.35;;;2.88;;
24147;SDS011;12309;51.450;-2.624;2022-07-06T05:26:06;7.40;;;2.70;;
24147;SDS011;12309;51.450;-2.624;2022-07-06T05:28:32;5.95;;;2.90;;
24147;SDS011;12309;51.450;-2.624;2022-07-06T05:30:59;7.22;;;2.88;;
24147;SDS011;12309;51.450;-2.624;2022-07-06T05:33:27;7.88;;;3.47;;
24147;SDS011;12309;51.450;-2.624;2022-07-06T05:35:53;7.03;;;3.17;;
24147;SDS011;12309;51.450;-2.624;2022-07-06T05:38:19;4.93;;;3.28;;
24147;SDS011;12309;51.450;-2.624;2022-07-06T05:40:44;4.03;;;3.30;;
24147;SDS011;12309;51.450;-2.624;2022-07-06T05:43:10;5.32;;;3.40;;
24147;SDS011;12309;51.450;-2.624;2022-07-06T05:45:36;6.35;;;3.67;;
24147;SDS011;12309;51.450;-2.624;2022-07-06T05:48:02;7.97;;;3.10;;
24147;SDS011;12309;51.450;-2.624;2022-07-06T05:50:46;4.47;;;2.90;;
24147;SDS011;12309;51.450;-2.624;2022-07-06T05:53:12;5.45;;;2.92;;
24147;SDS011;12309;51.450;-2.624;2022-07-06T05:55:38;6.95;;;3.05;;
24147;SDS011;12309;51.450;-2.624;2022-07-06T05:58:04;3.75;;;2.78;;
24147;SDS011;12309;51.450;-2.624;2022-07-06T06:00:30;3.90;;;2.90;;
24147;SDS011;12309;51.450;-2.624;2022-07-06T06:02:56;6.22;;;3.03;;
24147;SDS011;12309;51.450;-2.624;2022-07-06T06:05:23;5.07;;;3.00;;
24147;SDS011;12309;51.450;-2.624;2022-07-06T06:07:49;6.30;;;3.17;;
24147;SDS011;12309;51.450;-2.624;2022-07-06T06:10:16;4.07;;;3.55;;
24147;SDS011;12309;51.450;-2.624;2022-07-06T06:12:44;6.78;;;2.83;;
24147;SDS011;12309;51.450;-2.624;2022-07-06T06:15:10;4.13;;;2.65;;
24147;SDS011;12309;51.450;-2.624;2022-07-06T06:17:36;11.35;;;3.10;;
24147;SDS011;12309;51.450;-2.624;2022-07-06T06:20:03;5.05;;;2.28;;
24147;SDS011;12309;51.450;-2.624;2022-07-06T06:22:32;5.85;;;2.85;;
24147;SDS011;12309;51.450;-2.624;2022-07-06T06:25:10;5.32;;;2.50;;
24147;SDS011;12309;51.450;-2.624;2022-07-06T06:27:36;5.10;;;2.80;;
24147;SDS011;12309;51.450;-2.624;2022-07-06T06:30:02;5.65;;;2.47;;
24147;SDS011;12309;51.450;-2.624;2022-07-06T06:32:29;3.92;;;2.40;;
24147;SDS011;12309;51.450;-2.624;2022-07-06T06:34:54;5.07;;;2.20;;
24147;SDS011;12309;51.450;-2.624;2022-07-06T06:37:20;3.08;;;2.20;;
24147;SDS011;12309;51.450;-2.624;2022-07-06T06:39:46;3.05;;;2.13;;
24147;SDS011;12309;51.450;-2.624;2022-07-06T06:42:12;6.47;;;2.42;;
24147;SDS011;12309;51.450;-2.624;2022-07-06T06:44:37;2.60;;;2.03;;
24147;SDS011;12309;51.450;-2.624;2022-07-06T06:47:03;5.15;;;2.35;;
24147;SDS011;12309;51.450;-2.624;2022-07-06T06:49:29;8.30;;;2.05;;
24147;SDS011;12309;51.450;-2.624;2022-07-06T06:51:55;5.45;;;2.50;;
24147;SDS011;12309;51.450;-2.624;2022-07-06T06:54:20;2.17;;;1.92;;
24147;SDS011;12309;51.450;-2.624;2022-07-06T06:56:46;6.05;;;2.03;;
24147;SDS011;12309;51.450;-2.624;2022-07-06T06:59:12;4.28;;;1.67;;
24147;SDS011;12309;51.450;-2.624;2022-07-06T07:01:37;2.63;;;1.85;;
24147;SDS011;12309;51.450;-2.624;2022-07-06T07:04:03;3.00;;;1.88;;
24147;SDS011;12309;51.450;-2.624;2022-07-06T07:06:31;3.25;;;1.92;;
24147;SDS011;12309;51.450;-2.624;2022-07-06T07:08:58;3.20;;;1.70;;
24147;SDS011;12309;51.450;-2.624;2022-07-06T07:11:24;2.55;;;1.55;;
24147;SDS011;12309;51.450;-2.624;2022-07-06T07:13:50;2.85;;;1.60;;
24147;SDS011;12309;51.450;-2.624;2022-07-06T07:16:15;3.95;;;2.00;;
24147;SDS011;12309;51.450;-2.624;2022-07-06T07:18:41;3.35;;;1.60;;
24147;SDS011;12309;51.450;-2.624;2022-07-06T07:21:07;1.75;;;1.40;;
24147;SDS011;12309;51.450;-2.624;2022-07-06T07:23:33;3.95;;;1.73;;
24147;SDS011;12309;51.450;-2.624;2022-07-06T07:25:59;3.33;;;1.52;;
24147;SDS011;12309;51.450;-2.624;2022-07-06T07:28:25;2.45;;;1.48;;
24147;SDS011;12309;51.450;-2.624;2022-07-06T07:30:50;3.92;;;1.55;;
24147;SDS011;12309;51.450;-2.624;2022-07-06T07:33:16;3.88;;;1.67;;
24147;SDS011;12309;51.450;-2.624;2022-07-06T07:35:42;2.35;;;1.70;;
24147;SDS011;12309;51.450;-2.624;2022-07-06T07:38:08;3.83;;;1.92;;
24147;SDS011;12309;51.450;-2.624;2022-07-06T07:40:33;3.33;;;1.80;;
24147;SDS011;12309;51.450;-2.624;2022-07-06T07:43:00;6.43;;;2.00;;
24147;SDS011;12309;51.450;-2.624;2022-07-06T07:45:26;6.50;;;2.15;;
24147;SDS011;12309;51.450;-2.624;2022-07-06T07:47:52;4.63;;;1.80;;
24147;SDS011;12309;51.450;-2.624;2022-07-06T07:50:18;7.47;;;1.98;;
24147;SDS011;12309;51.450;-2.624;2022-07-06T07:52:44;7.43;;;2.28;;
24147;SDS011;12309;51.450;-2.624;2022-07-06T07:55:10;4.28;;;1.70;;
24147;SDS011;12309;51.450;-2.624;2022-07-06T07:57:36;6.32;;;1.98;;
24147;SDS011;12309;51.450;-2.624;2022-07-06T08:00:02;2.95;;;2.22;;
24147;SDS011;12309;51.450;-2.624;2022-07-06T08:02:29;3.33;;;1.83;;
24147;SDS011;12309;51.450;-2.624;2022-07-06T08:04:55;4.72;;;1.60;;
24147;SDS011;12309;51.450;-2.624;2022-07-06T08:07:21;2.85;;;1.58;;
24147;SDS011;12309;51.450;-2.624;2022-07-06T08:09:46;2.78;;;1.90;;
24147;SDS011;12309;51.450;-2.624;2022-07-06T08:12:12;2.78;;;1.63;;
24147;SDS011;12309;51.450;-2.624;2022-07-06T08:14:38;1.92;;;1.40;;
24147;SDS011;12309;51.450;-2.624;2022-07-06T08:17:04;1.88;;;1.15;;
24147;SDS011;12309;51.450;-2.624;2022-07-06T08:19:29;1.02;;;0.90;;
24147;SDS011;12309;51.450;-2.624;2022-07-06T08:21:56;2.20;;;1.10;;
24147;SDS011;12309;51.450;-2.624;2022-07-06T08:24:22;2.50;;;1.10;;
24147;SDS011;12309;51.450;-2.624;2022-07-06T08:26:48;5.65;;;1.10;;
24147;SDS011;12309;51.450;-2.624;2022-07-06T08:29:13;1.55;;;1.00;;
24147;SDS011;12309;51.450;-2.624;2022-07-06T08:31:39;1.77;;;1.10;;
24147;SDS011;12309;51.450;-2.624;2022-07-06T08:34:05;1.92;;;1.38;;
24147;SDS011;12309;51.450;-2.624;2022-07-06T08:36:33;2.28;;;1.08;;
24147;SDS011;12309;51.450;-2.624;2022-07-06T08:38:58;3.78;;;1.13;;
24147;SDS011;12309;51.450;-2.624;2022-07-06T08:41:25;3.88;;;0.90;;
24147;SDS011;12309;51.450;-2.624;2022-07-06T08:43:53;1.10;;;0.90;;
24147;SDS011;12309;51.450;-2.624;2022-07-06T08:46:20;1.58;;;0.88;;
24147;SDS011;12309;51.450;-2.624;2022-07-06T08:48:46;2.47;;;1.00;;
24147;SDS011;12309;51.450;-2.624;2022-07-06T08:51:13;1.80;;;1.02;;
24147;SDS011;12309;51.450;-2.624;2022-07-06T08:53:42;2.40;;;1.10;;
24147;SDS011;12309;51.450;-2.624;2022-07-06T08:56:10;3.15;;;1.10;;
24147;SDS011;12309;51.450;-2.624;2022-07-06T08:58:36;1.52;;;0.98;;
24147;SDS011;12309;51.450;-2.624;2022-07-06T09:01:06;2.83;;;1.00;;
24147;SDS011;12309;51.450;-2.624;2022-07-06T09:03:33;3.90;;;1.10;;
24147;SDS011;12309;51.450;-2.624;2022-07-06T09:06:01;3.17;;;1.20;;
24147;SDS011;12309;51.450;-2.624;2022-07-06T09:08:28;2.63;;;1.40;;
24147;SDS011;12309;51.450;-2.624;2022-07-06T09:10:56;5.13;;;1.13;;
24147;SDS011;12309;51.450;-2.624;2022-07-06T09:13:22;4.60;;;1.13;;
24147;SDS011;12309;51.450;-2.624;2022-07-06T09:15:47;2.25;;;1.00;;
24147;SDS011;12309;51.450;-2.624;2022-07-06T09:18:13;2.28;;;1.20;;
24147;SDS011;12309;51.450;-2.624;2022-07-06T09:20:42;1.13;;;1.00;;
24147;SDS011;12309;51.450;-2.624;2022-07-06T09:25:57;2.30;;;1.20;;
24147;SDS011;12309;51.450;-2.624;2022-07-06T09:31:11;3.80;;;1.00;;
24147;SDS011;12309;51.450;-2.624;2022-07-06T09:33:37;2.72;;;0.90;;
24147;SDS011;12309;51.450;-2.624;2022-07-06T09:36:03;2.03;;;0.90;;
24147;SDS011;12309;51.450;-2.624;2022-07-06T09:38:31;1.75;;;0.90;;
24147;SDS011;12309;51.450;-2.624;2022-07-06T09:40:56;3.40;;;0.93;;
24147;SDS011;12309;51.450;-2.624;2022-07-06T09:43:23;2.28;;;1.10;;
24147;SDS011;12309;51.450;-2.624;2022-07-06T09:46:04;2.40;;;1.00;;
24147;SDS011;12309;51.450;-2.624;2022-07-06T09:48:30;4.63;;;1.05;;
24147;SDS011;12309;51.450;-2.624;2022-07-06T09:51:00;2.60;;;0.80;;
24147;SDS011;12309;51.450;-2.624;2022-07-06T09:53:34;1.20;;;0.95;;
24147;SDS011;12309;51.450;-2.624;2022-07-06T09:56:00;1.50;;;0.68;;
24147;SDS011;12309;51.450;-2.624;2022-07-06T09:58:30;2.50;;;0.98;;
24147;SDS011;12309;51.450;-2.624;2022-07-06T10:00:56;0.88;;;0.68;;
24147;SDS011;12309;51.450;-2.624;2022-07-06T10:03:21;1.92;;;0.90;;
24147;SDS011;12309;51.450;-2.624;2022-07-06T10:05:48;1.85;;;0.70;;
24147;SDS011;12309;51.450;-2.624;2022-07-06T10:08:15;3.08;;;0.73;;
24147;SDS011;12309;51.450;-2.624;2022-07-06T10:10:42;2.90;;;0.80;;
24147;SDS011;12309;51.450;-2.624;2022-07-06T10:13:11;5.90;;;1.00;;
24147;SDS011;12309;51.450;-2.624;2022-07-06T10:15:38;2.00;;;0.90;;
24147;SDS011;12309;51.450;-2.624;2022-07-06T10:18:05;1.95;;;0.90;;
24147;SDS011;12309;51.450;-2.624;2022-07-06T10:20:34;3.15;;;0.85;;
24147;SDS011;12309;51.450;-2.624;2022-07-06T10:23:03;2.78;;;1.00;;
24147;SDS011;12309;51.450;-2.624;2022-07-06T10:25:31;1.45;;;0.80;;
24147;SDS011;12309;51.450;-2.624;2022-07-06T10:27:58;4.20;;;1.00;;
24147;SDS011;12309;51.450;-2.624;2022-07-06T10:30:26;3.17;;;1.10;;
24147;SDS011;12309;51.450;-2.624;2022-07-06T10:32:54;3.45;;;1.05;;
24147;SDS011;12309;51.450;-2.624;2022-07-06T10:35:21;3.58;;;1.33;;
24147;SDS011;12309;51.450;-2.624;2022-07-06T10:38:03;1.92;;;1.13;;
24147;SDS011;12309;51.450;-2.624;2022-07-06T10:40:33;5.05;;;1.27;;
24147;SDS011;12309;51.450;-2.624;2022-07-06T10:43:34;4.10;;;1.65;;
24147;SDS011;12309;51.450;-2.624;2022-07-06T10:46:08;1.42;;;1.27;;
24147;SDS011;12309;51.450;-2.624;2022-07-06T10:48:39;1.63;;;0.93;;
24147;SDS011;12309;51.450;-2.624;2022-07-06T10:51:10;1.10;;;0.70;;
24147;SDS011;12309;51.450;-2.624;2022-07-06T10:53:38;2.28;;;0.82;;
24147;SDS011;12309;51.450;-2.624;2022-07-06T10:56:06;1.77;;;1.02;;
24147;SDS011;12309;51.450;-2.624;2022-07-06T10:58:37;3.53;;;1.17;;
24147;SDS011;12309;51.450;-2.624;2022-07-06T11:01:15;2.50;;;1.02;;
24147;SDS011;12309;51.450;-2.624;2022-07-06T11:03:45;1.45;;;0.70;;
24147;SDS011;12309;51.450;-2.624;2022-07-06T11:06:24;1.58;;;0.70;;
24147;SDS011;12309;51.450;-2.624;2022-07-06T11:17:17;2.13;;;0.70;;
24147;SDS011;12309;51.450;-2.624;2022-07-06T11:19:27;1.23;;;0.65;;
24147;SDS011;12309;51.450;-2.624;2022-07-06T11:21:54;2.40;;;0.73;;
24147;SDS011;12309;51.450;-2.624;2022-07-06T11:24:31;2.55;;;0.60;;
24147;SDS011;12309;51.450;-2.624;2022-07-06T11:26:59;1.60;;;0.73;;
24147;SDS011;12309;51.450;-2.624;2022-07-06T11:29:26;3.25;;;0.80;;
24147;SDS011;12309;51.450;-2.624;2022-07-06T11:31:54;1.83;;;0.70;;
24147;SDS011;12309;51.450;-2.624;2022-07-06T11:34:31;1.48;;;0.80;;
24147;SDS011;12309;51.450;-2.624;2022-07-06T11:36:59;1.70;;;0.80;;
24147;SDS011;12309;51.450;-2.624;2022-07-06T11:39:30;5.10;;;0.80;;
24147;SDS011;12309;51.450;-2.624;2022-07-06T11:41:58;1.15;;;0.50;;
24147;SDS011;12309;51.450;-2.624;2022-07-06T11:44:25;0.98;;;0.55;;
24147;SDS011;12309;51.450;-2.624;2022-07-06T11:46:52;2.03;;;0.70;;
24147;SDS011;12309;51.450;-2.624;2022-07-06T11:49:19;1.35;;;0.60;;
24147;SDS011;12309;51.450;-2.624;2022-07-06T11:51:46;1.30;;;0.60;;
24147;SDS011;12309;51.450;-2.624;2022-07-06T11:54:16;2.05;;;0.77;;
24147;SDS011;12309;51.450;-2.624;2022-07-06T11:56:46;2.20;;;0.55;;
24147;SDS011;12309;51.450;-2.624;2022-07-06T11:59:33;1.42;;;0.68;;
24147;SDS011;12309;51.450;-2.624;2022-07-06T12:04:29;1.63;;;0.98;;
24147;SDS011;12309;51.450;-2.624;2022-07-06T12:06:59;2.92;;;0.90;;
24147;SDS011;12309;51.450;-2.624;2022-07-06T12:09:30;0.88;;;0.65;;
24147;SDS011;12309;51.450;-2.624;2022-07-06T12:11:57;3.92;;;1.33;;
24147;SDS011;12309;51.450;-2.624;2022-07-06T12:14:27;5.55;;;1.42;;
24147;SDS011;12309;51.450;-2.624;2022-07-06T12:16:53;5.05;;;1.10;;
24147;SDS011;12309;51.450;-2.624;2022-07-06T12:19:21;3.00;;;1.08;;
24147;SDS011;12309;51.450;-2.624;2022-07-06T12:21:48;4.05;;;1.00;;
24147;SDS011;12309;51.450;-2.624;2022-07-06T12:24:22;3.90;;;1.10;;
24147;SDS011;12309;51.450;-2.624;2022-07-06T12:26:50;4.80;;;1.10;;
24147;SDS011;12309;51.450;-2.624;2022-07-06T12:29:17;4.95;;;1.23;;
24147;SDS011;12309;51.450;-2.624;2022-07-06T12:31:47;3.42;;;1.17;;
24147;SDS011;12309;51.450;-2.624;2022-07-06T12:34:21;3.00;;;1.30;;
24147;SDS011;12309;51.450;-2.624;2022-07-06T12:36:52;5.35;;;1.10;;
24147;SDS011;12309;51.450;-2.624;2022-07-06T12:39:23;4.00;;;1.30;;
24147;SDS011;12309;51.450;-2.624;2022-07-06T12:41:50;5.35;;;1.10;;
24147;SDS011;12309;51.450;-2.624;2022-07-06T12:44:24;5.28;;;1.27;;
24147;SDS011;12309;51.450;-2.624;2022-07-06T12:46:50;6.82;;;1.38;;
24147;SDS011;12309;51.450;-2.624;2022-07-06T12:49:27;5.00;;;1.55;;
24147;SDS011;12309;51.450;-2.624;2022-07-06T12:51:57;3.63;;;1.00;;
24147;SDS011;12309;51.450;-2.624;2022-07-06T12:54:24;3.72;;;1.35;;
24147;SDS011;12309;51.450;-2.624;2022-07-06T12:59:32;2.25;;;1.00;;
24147;SDS011;12309;51.450;-2.624;2022-07-06T13:02:06;4.90;;;1.38;;
24147;SDS011;12309;51.450;-2.624;2022-07-06T13:04:34;5.28;;;1.20;;
24147;SDS011;12309;51.450;-2.624;2022-07-06T13:07:01;6.18;;;1.60;;
24147;SDS011;12309;51.450;-2.624;2022-07-06T13:09:28;9.00;;;1.65;;
24147;SDS011;12309;51.450;-2.624;2022-07-06T13:11:55;3.70;;;1.27;;
24147;SDS011;12309;51.450;-2.624;2022-07-06T13:14:21;6.63;;;1.40;;
24147;SDS011;12309;51.450;-2.624;2022-07-06T13:16:47;5.60;;;1.70;;
24147;SDS011;12309;51.450;-2.624;2022-07-06T13:19:14;1.95;;;1.20;;
24147;SDS011;12309;51.450;-2.624;2022-07-06T13:21:40;6.88;;;1.73;;
24147;SDS011;12309;51.450;-2.624;2022-07-06T13:24:06;4.38;;;1.73;;
24147;SDS011;12309;51.450;-2.624;2022-07-06T13:26:32;5.88;;;1.75;;
24147;SDS011;12309;51.450;-2.624;2022-07-06T13:29:01;6.72;;;1.60;;
24147;SDS011;12309;51.450;-2.624;2022-07-06T13:31:28;5.18;;;1.27;;
24147;SDS011;12309;51.450;-2.624;2022-07-06T13:33:54;3.90;;;1.20;;
24147;SDS011;12309;51.450;-2.624;2022-07-06T13:36:21;7.30;;;1.48;;
24147;SDS011;12309;51.450;-2.624;2022-07-06T13:38:48;4.70;;;1.60;;
24147;SDS011;12309;51.450;-2.624;2022-07-06T13:41:13;5.80;;;1.45;;
24147;SDS011;12309;51.450;-2.624;2022-07-06T13:43:39;6.03;;;1.27;;
24147;SDS011;12309;51.450;-2.624;2022-07-06T13:46:05;3.13;;;1.30;;
24147;SDS011;12309;51.450;-2.624;2022-07-06T13:48:32;5.65;;;1.83;;
24147;SDS011;12309;51.450;-2.624;2022-07-06T13:50:59;7.72;;;1.40;;
24147;SDS011;12309;51.450;-2.624;2022-07-06T13:53:25;5.00;;;1.10;;
24147;SDS011;12309;51.450;-2.624;2022-07-06T13:55:51;5.30;;;1.30;;
24147;SDS011;12309;51.450;-2.624;2022-07-06T13:58:18;5.18;;;1.00;;
24147;SDS011;12309;51.450;-2.624;2022-07-06T14:00:44;5.43;;;1.25;;
24147;SDS011;12309;51.450;-2.624;2022-07-06T14:03:10;6.78;;;1.30;;
24147;SDS011;12309;51.450;-2.624;2022-07-06T14:05:36;4.75;;;1.38;;
24147;SDS011;12309;51.450;-2.624;2022-07-06T14:08:02;5.85;;;1.30;;
24147;SDS011;12309;51.450;-2.624;2022-07-06T14:10:28;5.18;;;1.25;;
24147;SDS011;12309;51.450;-2.624;2022-07-06T14:12:54;7.68;;;1.73;;
24147;SDS011;12309;51.450;-2.624;2022-07-06T14:15:20;4.00;;;1.08;;
24147;SDS011;12309;51.450;-2.624;2022-07-06T14:17:46;6.68;;;1.17;;
24147;SDS011;12309;51.450;-2.624;2022-07-06T14:20:14;4.57;;;1.50;;
24147;SDS011;12309;51.450;-2.624;2022-07-06T14:22:41;5.53;;;1.77;;
24147;SDS011;12309;51.450;-2.624;2022-07-06T14:25:07;4.68;;;1.30;;
24147;SDS011;12309;51.450;-2.624;2022-07-06T14:27:34;3.75;;;1.30;;
24147;SDS011;12309;51.450;-2.624;2022-07-06T14:30:00;7.13;;;1.42;;
24147;SDS011;12309;51.450;-2.624;2022-07-06T14:32:26;9.13;;;1.58;;
24147;SDS011;12309;51.450;-2.624;2022-07-06T14:34:52;5.38;;;1.60;;
24147;SDS011;12309;51.450;-2.624;2022-07-06T14:37:18;8.05;;;1.60;;
24147;SDS011;12309;51.450;-2.624;2022-07-06T14:39:44;7.45;;;1.58;;
24147;SDS011;12309;51.450;-2.624;2022-07-06T14:42:11;8.32;;;1.38;;
24147;SDS011;12309;51.450;-2.624;2022-07-06T14:44:37;6.35;;;1.60;;
24147;SDS011;12309;51.450;-2.624;2022-07-06T14:47:03;9.00;;;1.55;;
24147;SDS011;12309;51.450;-2.624;2022-07-06T14:49:29;9.70;;;1.60;;
24147;SDS011;12309;51.450;-2.624;2022-07-06T14:51:56;3.67;;;1.30;;
24147;SDS011;12309;51.450;-2.624;2022-07-06T14:54:25;6.75;;;1.73;;